Albany, New York
Traffic Map
Current Weather Conditions
Albany, New York
Clear
Clear
66°
Feels Like: 66°
Wind Chill: 66° Ceiling: Unl
Heat Index: 66° Visibility: 10mi
Dew Point: 59° Wind: 0mph
Humidity: 78% Direction: ° ()
Pressure: 30.14in Gusts: 0mph
Raw Report DataKALB 210351Z 00000KT 10SM CLR 19/15 A3014 RMK AO2 SLP204 T01890150
Traffic Incident Summary
Active as of:
Severity:
Category:
InformationThere was an issue retrieving the traffic information for this location. Please try a different location or try again shortly.
Advertisements